This is the latest recevied weather packets stored in our database for station/object WC4PEM-11. If no packets are shown the sender has not sent any weather packets the latest 10 day(s).
| Time | Temp. | Humidity | Pressure | Rain* | Wind** | Luminosity | Snow |
|---|---|---|---|---|---|---|---|
| 1777416802 | 29.44° C | 56% | 1016.9 hPa | 0 mm | - | - | - |
| 1777416502 | 30° C | 55% | 1016.8 hPa | 0 mm | - | - | - |
| 1777416202 | 29.44° C | 56% | 1016.9 hPa | 0 mm | - | - | - |
| 1777415902 | 30° C | 54% | 1016.8 hPa | 0 mm | - | - | - |
| 1777415601 | 30° C | 53% | 1016.8 hPa | 0 mm | - | - | - |
| 1777415410 | 30.56° C | 52% | 1016.8 hPa | 0 mm | - | - | - |
| 1777415302 | 30.56° C | 52% | 1016.7 hPa | 0 mm | - | - | - |
| 1777415002 | 30.56° C | 52% | 1016.8 hPa | 0 mm | - | - | - |
| 1777414904 | 29.44° C | 56% | 1016.7 hPa | 0 mm | - | - | - |
| 1777414702 | 30.56° C | 52% | 1016.7 hPa | 0 mm | - | - | - |
| 1777414402 | 30.56° C | 52% | 1016.6 hPa | 0 mm | - | - | - |
| 1777414102 | 31.11° C | 51% | 1016.6 hPa | 0 mm | - | - | - |
| 1777413802 | 31.11° C | 50% | 1016.5 hPa | 0 mm | - | - | - |
| 1777413502 | 31.11° C | 52% | 1016.6 hPa | 0 mm | - | - | - |
| 1777413202 | 30.56° C | 53% | 1016.6 hPa | 0 mm | - | - | - |
| 1777412902 | 30.56° C | 52% | 1016.5 hPa | 0 mm | - | - | - |
| 1777412602 | 30.56° C | 53% | 1016.5 hPa | 0 mm | - | - | - |
| 1777412302 | 30.56° C | 54% | 1016.5 hPa | 0 mm | - | - | - |
| 1777412002 | 29.44° C | 55% | 1016.6 hPa | 0 mm | - | - | - |
| 1777411702 | 29.44° C | 56% | 1016.7 hPa | 0 mm | - | - | - |
| 1777411698 | 31.11° C | 51% | 1016.8 hPa | 0 mm | - | - | - |
| 1777411402 | 30° C | 54% | 1016.6 hPa | 0 mm | - | - | - |
| 1777411102 | 31.11° C | 53% | 1016.7 hPa | 0 mm | - | - | - |
| 1777410802 | 31.11° C | 51% | 1016.7 hPa | 0 mm | - | - | - |
| 1777410502 | 31.11° C | 51% | 1016.8 hPa | 0 mm | - | - | - |
* Rain latest hour (hover to see other rain measurements)
** Current wind speed in m/s (hover to see current wind gust speed)